Terminal Aerodrome Forecast
Issued by NWS Tuscon, AZ

Home | Current Version | Previous Version | Text Only | Print | Product List | Glossary On
Versions: 1 2 3 4 5 6 7 8 9 10 11 12 13
000
FTUS45 KTWC 172300 RRA
TAFDUG
TAF
KDUG 172342Z 1800/1824 15009KT P6SM SCT250
     FM181200 VRB03KT P6SM FEW100 BKN250
     FM181800 16012G22KT P6SM SCT100 OVC250=

USA.gov is the U.S. government's official web portal to all federal, state and local government web resources and services.